Time;durP1;ratioP1;P1;durP2;ratioP2;P2;SDS_P1;SDS_P2;PMS_P1;PMS_P2;Temp;Humidity;BMP_temperature;BMP_pressure;BME280_temperature;BME280_humidity;BME280_pressure;Samples;Min_cycle;Max_cycle;Signal;HPM_P1;HPM_P2
2021/09/10 00:29:33;;;;;;;6.00;5.50;;;24.70;58.80;;;;;;4733347;30;20988;-85
2021/09/10 00:35:38;;;;;;;6.90;5.60;;;24.70;58.80;;;;;;4692165;30;20511;-85
2021/09/10 00:38:07;;;;;;;6.30;5.80;;;24.60;58.80;;;;;;4684625;30;20444;-85
2021/09/10 00:40:36;;;;;;;7.47;6.20;;;24.70;58.80;;;;;;4699003;30;20518;-85
2021/09/10 00:43:02;;;;;;;6.43;5.80;;;24.70;58.80;;;;;;4698429;30;21014;-85
2021/09/10 00:45:33;;;;;;;6.23;5.73;;;24.70;58.70;;;;;;4714797;30;20450;-85
2021/09/10 00:48:00;;;;;;;7.37;6.67;;;24.70;58.70;;;;;;4701844;30;20470;-85
2021/09/10 00:50:27;;;;;;;7.17;6.47;;;24.70;58.70;;;;;;4715168;30;20450;-85
2021/09/10 00:52:55;;;;;;;6.43;5.90;;;24.70;58.70;;;;;;4710927;30;20431;-85
2021/09/10 00:55:25;;;;;;;7.37;6.50;;;24.80;58.70;;;;;;4716178;30;20439;-85
2021/09/10 00:57:53;;;;;;;5.73;5.23;;;24.80;58.80;;;;;;4706708;30;20450;-85
2021/09/10 01:00:22;;;;;;;8.30;6.63;;;24.80;58.80;;;;;;4732921;30;20473;-85
2021/09/10 01:02:53;;;;;;;5.13;4.63;;;24.80;58.70;;;;;;4733451;30;20591;-85
2021/09/10 01:05:19;;;;;;;6.83;6.13;;;24.80;58.70;;;;;;4798143;30;20455;-84
2021/09/10 01:07:52;;;;;;;6.53;5.80;;;24.80;58.70;;;;;;4806016;30;20426;-84
2021/09/10 01:10:28;;;;;;;8.60;6.30;;;24.80;58.70;;;;;;4792285;30;20426;-84
2021/09/10 01:12:55;;;;;;;6.90;6.27;;;24.80;58.70;;;;;;4840560;29;20415;-84
2021/09/10 01:15:30;;;;;;;6.30;5.70;;;24.80;58.70;;;;;;4829611;29;20419;-84
2021/09/10 01:18:10;;;;;;;7.70;6.77;;;24.80;58.70;;;;;;4860441;29;20426;-84
2021/09/10 01:20:40;;;;;;;7.00;6.30;;;24.80;58.70;;;;;;4860395;29;20463;-85
2021/09/10 01:26:33;;;;;;;7.27;5.80;;;24.80;58.80;;;;;;4860357;29;20395;-84
2021/09/10 01:29:06;;;;;;;6.77;6.17;;;24.70;58.90;;;;;;4859782;29;20482;-84
2021/09/10 01:31:32;;;;;;;7.40;6.30;;;24.80;59.00;;;;;;4859345;29;20419;-84
2021/09/10 01:34:01;;;;;;;7.37;5.47;;;24.70;58.90;;;;;;4860086;29;20419;-84
2021/09/10 01:36:30;;;;;;;7.00;6.30;;;24.70;58.90;;;;;;4860070;29;20505;-84
2021/09/10 01:38:57;;;;;;;5.97;5.40;;;24.70;58.90;;;;;;4844812;29;20431;-84
2021/09/10 01:41:23;;;;;;;6.43;5.83;;;24.70;58.90;;;;;;4859945;29;20428;-84
2021/09/10 01:43:50;;;;;;;5.83;5.30;;;24.70;58.90;;;;;;4859737;29;20453;-84
2021/09/10 01:49:38;;;;;;;6.83;5.63;;;24.70;58.90;;;;;;4860045;29;20464;-84
2021/09/10 01:55:45;;;;;;;6.47;5.87;;;24.70;59.00;;;;;;4860022;29;20423;-84
2021/09/10 01:58:24;;;;;;;6.13;5.57;;;24.60;59.00;;;;;;4859411;29;20444;-84
2021/09/10 02:01:01;;;;;;;7.43;5.50;;;24.70;59.00;;;;;;4859528;29;20463;-84
2021/09/10 02:03:30;;;;;;;7.13;6.50;;;24.60;58.90;;;;;;4844535;29;20427;-84
2021/09/10 02:06:17;;;;;;;6.40;5.70;;;24.60;59.00;;;;;;4855260;29;20435;-84
2021/09/10 02:08:49;;;;;;;6.60;5.60;;;24.60;59.00;;;;;;4844480;29;20432;-84
2021/09/10 02:11:33;;;;;;;6.60;6.00;;;24.60;59.00;;;;;;4859317;29;20428;-84
2021/09/10 02:14:02;;;;;;;6.50;5.90;;;24.70;59.00;;;;;;4857594;29;20433;-84
2021/09/10 02:16:29;;;;;;;6.03;5.10;;;24.60;58.90;;;;;;4859980;29;20423;-84
2021/09/10 02:18:55;;;;;;;7.90;6.20;;;24.60;58.90;;;;;;4859486;29;20428;-84
2021/09/10 02:21:24;;;;;;;8.03;6.27;;;24.60;58.80;;;;;;4859111;29;20439;-84
2021/09/10 02:27:12;;;;;;;5.90;5.40;;;24.70;59.00;;;;;;4860361;29;20541;-84
2021/09/10 02:33:03;;;;;;;5.77;5.17;;;24.60;58.80;;;;;;4859464;29;20391;-84
2021/09/10 02:35:35;;;;;;;7.03;6.33;;;24.60;59.00;;;;;;4859364;29;20419;-84
2021/09/10 02:38:12;;;;;;;6.53;5.93;;;24.60;59.00;;;;;;4859565;29;20435;-84
2021/09/10 02:40:40;;;;;;;5.90;5.00;;;24.60;59.00;;;;;;4859574;29;20455;-84
2021/09/10 02:53:19;;;;;;;6.30;5.80;;;24.60;58.90;;;;;;4862804;29;20393;-84
2021/09/10 02:55:49;;;;;;;6.40;5.80;;;24.50;58.90;;;;;;4847315;29;20420;-85
2021/09/10 02:58:16;;;;;;;7.87;7.10;;;24.50;58.90;;;;;;4847092;29;20524;-85
2021/09/10 03:00:49;;;;;;;5.40;4.90;;;24.50;58.90;;;;;;4833059;29;20466;-85
2021/09/10 03:03:21;;;;;;;6.97;5.70;;;24.50;58.80;;;;;;4848049;29;20407;-85
2021/09/10 03:05:48;;;;;;;6.50;6.00;;;24.50;58.70;;;;;;4862794;29;20403;-85
2021/09/10 03:08:15;;;;;;;6.33;5.40;;;24.50;58.70;;;;;;4864335;29;20435;-85
2021/09/10 03:10:44;;;;;;;6.07;5.47;;;24.50;58.70;;;;;;4848882;29;20411;-85
2021/09/10 03:13:10;;;;;;;6.63;6.00;;;24.60;58.80;;;;;;4846810;29;20427;-84
2021/09/10 03:15:52;;;;;;;5.70;5.17;;;24.60;58.70;;;;;;4848588;29;20432;-84
2021/09/10 03:18:18;;;;;;;7.77;6.93;;;24.60;58.70;;;;;;4863301;29;20447;-84
2021/09/10 03:20:50;;;;;;;6.90;5.60;;;24.50;58.60;;;;;;4862614;29;20470;-84
2021/09/10 03:23:16;;;;;;;6.13;5.53;;;24.50;58.60;;;;;;4864093;29;20423;-84
2021/09/10 03:25:45;;;;;;;6.87;5.57;;;24.60;58.70;;;;;;4862622;29;20415;-85
2021/09/10 03:28:16;;;;;;;6.80;6.13;;;24.50;58.60;;;;;;4847095;29;20416;-85
2021/09/10 03:30:43;;;;;;;6.10;5.50;;;24.50;58.60;;;;;;4861023;29;20423;-85
2021/09/10 03:33:09;;;;;;;7.40;5.87;;;24.50;58.60;;;;;;4846599;29;20455;-85
2021/09/10 03:35:47;;;;;;;6.30;5.70;;;24.50;58.60;;;;;;4831486;29;20617;-85
2021/09/10 03:38:13;;;;;;;8.17;6.10;;;24.50;58.60;;;;;;4846288;29;20562;-85
2021/09/10 03:40:44;;;;;;;7.13;6.43;;;24.50;58.60;;;;;;4846689;29;20500;-85
2021/09/10 03:43:15;;;;;;;6.60;6.00;;;24.50;58.60;;;;;;4846004;29;20544;-84
2021/09/10 03:49:22;;;;;;;7.30;6.50;;;24.50;58.50;;;;;;4861498;29;20395;-85
2021/09/10 03:51:53;;;;;;;6.47;5.87;;;24.50;58.60;;;;;;4861199;29;20419;-85
2021/09/10 03:54:30;;;;;;;6.57;5.97;;;24.50;58.70;;;;;;4861599;29;20424;-85
2021/09/10 03:56:59;;;;;;;7.97;6.23;;;24.50;58.70;;;;;;4861827;29;20430;-85
2021/09/10 03:59:30;;;;;;;7.47;6.00;;;24.50;58.70;;;;;;4860957;29;20495;-85
2021/09/10 04:01:57;;;;;;;7.00;6.30;;;24.50;58.60;;;;;;4846425;29;20423;-85
2021/09/10 04:04:29;;;;;;;6.50;5.90;;;24.50;58.60;;;;;;4924065;29;20415;-85
2021/09/10 04:06:58;;;;;;;8.93;5.90;;;24.50;58.60;;;;;;4957493;29;20478;-85
2021/09/10 04:09:35;;;;;;;;;;;;;;;;;;;;;
2021/09/10 04:12:04;;;;;;;6.40;5.80;;;24.50;58.60;;;;;;4947160;29;20451;-84
2021/09/10 04:14:33;;;;;;;6.40;5.80;;;24.50;58.60;;;;;;4926271;29;20435;-84
2021/09/10 04:17:06;;;;;;;7.03;6.30;;;24.50;58.60;;;;;;4957252;29;20415;-84
2021/09/10 04:19:39;;;;;;;8.43;6.03;;;24.50;58.60;;;;;;4941324;29;20945;-84
2021/09/10 04:22:05;;;;;;;6.03;5.50;;;24.50;58.60;;;;;;4941449;29;20392;-84
2021/09/10 04:24:55;;;;;;;7.23;6.50;;;24.50;58.60;;;;;;4921141;29;20424;-84
2021/09/10 04:27:23;;;;;;;6.80;6.07;;;24.50;58.60;;;;;;4939176;29;20397;-83
2021/09/10 04:29:58;;;;;;;8.30;6.13;;;24.40;58.50;;;;;;4939563;29;20434;-84
2021/09/10 04:33:03;;;;;;;7.33;6.37;;;24.50;58.60;;;;;;4956498;29;20403;-84
2021/09/10 04:35:35;;;;;;;7.10;6.40;;;24.40;58.50;;;;;;4939257;29;20502;-84
2021/09/10 04:38:03;;;;;;;8.60;7.73;;;24.40;59.10;;;;;;4955166;29;20419;-84
2021/09/10 04:40:36;;;;;;;6.10;5.60;;;24.40;58.50;;;;;;4955637;29;20457;-84
2021/09/10 04:43:14;;;;;;;6.23;5.63;;;24.40;58.50;;;;;;4956173;29;20464;-84
2021/09/10 04:45:43;;;;;;;7.47;6.40;;;24.40;58.50;;;;;;4938747;29;20424;-84
2021/09/10 04:48:18;;;;;;;;;;;;;;;;;;;;;
2021/09/10 04:50:45;;;;;;;6.90;6.20;;;24.40;58.50;;;;;;4951948;29;20450;-84
2021/09/10 04:53:11;;;;;;;7.70;6.10;;;24.40;58.50;;;;;;4937803;29;20419;-84
2021/09/10 04:55:37;;;;;;;5.90;5.40;;;24.40;58.50;;;;;;4937209;29;20190;-84
2021/09/10 04:58:04;;;;;;;6.60;6.00;;;24.40;58.50;;;;;;4954197;29;20442;-84
2021/09/10 05:00:33;;;;;;;7.70;7.00;;;24.40;58.50;;;;;;4954040;29;20829;-85
2021/09/10 05:03:03;;;;;;;7.07;6.37;;;24.40;58.50;;;;;;4954134;29;20427;-84
2021/09/10 05:05:29;;;;;;;6.27;5.67;;;24.50;58.50;;;;;;4956559;29;20422;-85
2021/09/10 05:07:55;;;;;;;8.20;5.67;;;24.40;58.50;;;;;;4955844;29;20543;-85
2021/09/10 05:10:36;;;;;;;6.00;5.50;;;24.40;58.50;;;;;;4954741;29;20415;-84
2021/09/10 05:13:03;;;;;;;7.90;5.83;;;24.50;58.50;;;;;;4956493;29;20426;-85
2021/09/10 05:15:29;;;;;;;6.30;5.70;;;24.40;58.50;;;;;;4937658;29;20422;-84
2021/09/10 05:17:55;;;;;;;7.20;6.17;;;24.40;58.50;;;;;;4955080;29;20175;-84
2021/09/10 05:20:21;;;;;;;6.10;5.50;;;24.40;58.50;;;;;;4939182;29;20246;-85
2021/09/10 05:22:47;;;;;;;6.80;5.80;;;24.40;58.50;;;;;;4938169;29;20189;-85
2021/09/10 05:25:14;;;;;;;6.43;5.67;;;24.40;59.10;;;;;;4937450;29;20180;-85
2021/09/10 05:27:40;;;;;;;7.00;6.03;;;24.40;58.50;;;;;;4953872;29;20411;-85
2021/09/10 05:30:08;;;;;;;6.30;5.80;;;24.40;59.10;;;;;;4953386;29;20801;-85
2021/09/10 05:32:37;;;;;;;6.90;6.30;;;24.40;58.50;;;;;;4952965;29;20186;-85
2021/09/10 05:35:03;;;;;;;5.93;5.23;;;24.40;58.50;;;;;;4953036;29;20419;-85
2021/09/10 05:37:31;;;;;;;5.93;5.40;;;24.40;58.50;;;;;;4936077;29;20450;-85
2021/09/10 05:39:56;;;;;;;6.17;5.60;;;24.50;58.70;;;;;;4935520;29;20466;-85
2021/09/10 05:42:24;;;;;;;6.33;5.73;;;24.50;58.60;;;;;;4935873;29;20419;-85
2021/09/10 05:44:49;;;;;;;6.00;5.50;;;24.50;58.70;;;;;;4953201;29;20179;-85
2021/09/10 05:47:37;;;;;;;7.60;5.63;;;24.50;58.70;;;;;;4936187;29;20458;-85
2021/09/10 05:50:03;;;;;;;6.03;5.43;;;24.50;58.70;;;;;;4947149;28;20418;-85
2021/09/10 05:52:48;;;;;;;6.73;6.13;;;24.50;58.70;;;;;;4967708;28;20436;-85
2021/09/10 05:55:14;;;;;;;8.10;5.43;;;24.50;58.70;;;;;;4957290;28;20432;-85
2021/09/10 05:58:06;;;;;;;6.10;5.50;;;24.50;58.70;;;;;;4956757;29;20445;-85
2021/09/10 06:00:34;;;;;;;6.80;6.10;;;24.50;58.70;;;;;;4942451;29;20608;-85
2021/09/10 06:03:06;;;;;;;6.03;5.43;;;24.50;58.70;;;;;;4973391;28;20447;-85
2021/09/10 06:05:32;;;;;;;6.27;5.67;;;24.50;58.70;;;;;;4960115;29;20435;-85
2021/09/10 06:08:00;;;;;;;7.07;6.37;;;24.50;58.80;;;;;;4962772;28;20461;-85
2021/09/10 06:10:29;;;;;;;5.87;5.37;;;24.50;58.80;;;;;;4961818;28;20470;-85
2021/09/10 06:12:55;;;;;;;7.40;6.20;;;24.50;58.80;;;;;;4968257;28;20426;-85
2021/09/10 06:15:23;;;;;;;6.20;5.60;;;24.50;58.80;;;;;;4979559;28;20409;-85
2021/09/10 06:17:58;;;;;;;5.40;4.70;;;24.50;58.80;;;;;;4976767;28;20209;-85
2021/09/10 06:20:24;;;;;;;5.87;5.37;;;24.50;58.80;;;;;;4982031;28;20461;-84
2021/09/10 06:22:52;;;;;;;7.77;6.97;;;24.50;58.80;;;;;;4971304;28;20420;-84
2021/09/10 06:25:19;;;;;;;5.87;5.27;;;24.50;58.80;;;;;;4977468;28;20177;-85
2021/09/10 06:27:45;;;;;;;5.40;4.97;;;24.50;58.80;;;;;;4985330;28;20765;-84
2021/09/10 06:30:14;;;;;;;5.67;5.17;;;24.50;58.80;;;;;;4984597;28;20438;-84
2021/09/10 06:32:47;;;;;;;6.13;5.30;;;24.50;58.80;;;;;;4964717;28;20433;-83
2021/09/10 06:35:18;;;;;;;6.60;5.93;;;24.50;58.80;;;;;;4984683;28;20467;-84
2021/09/10 06:37:50;;;;;;;5.87;5.37;;;24.50;58.80;;;;;;4975330;28;20429;-84
2021/09/10 06:43:20;;;;;;;6.13;5.53;;;24.50;58.80;;;;;;4964020;29;20433;-84
2021/09/10 06:45:46;;;;;;;7.00;5.63;;;24.50;58.90;;;;;;4964118;28;20437;-84
2021/09/10 06:48:18;;;;;;;6.53;5.03;;;24.50;58.90;;;;;;4954995;29;20518;-84
2021/09/10 06:50:44;;;;;;;7.30;5.53;;;24.50;58.80;;;;;;4983117;28;20444;-84
2021/09/10 06:53:10;;;;;;;6.70;6.00;;;24.50;58.80;;;;;;4976204;29;20413;-85
2021/09/10 06:55:37;;;;;;;6.90;5.90;;;24.50;58.70;;;;;;4959198;29;20178;-84
2021/09/10 06:58:02;;;;;;;5.57;5.07;;;24.50;58.70;;;;;;4976123;29;20445;-85
2021/09/10 07:00:28;;;;;;;6.60;5.77;;;24.50;58.70;;;;;;4961195;29;20480;-84
2021/09/10 07:06:19;;;;;;;6.50;5.90;;;24.60;58.70;;;;;;4976153;28;20201;-83
2021/09/10 07:08:56;;;;;;;5.90;5.40;;;24.50;58.70;;;;;;4960351;29;20417;-85
2021/09/10 07:11:32;;;;;;;;;;;;;;;;;;;;;
2021/09/10 07:17:25;;;;;;;5.80;5.20;;;24.60;58.80;;;;;;4916993;29;20424;-83
2021/09/10 07:19:50;;;;;;;5.33;4.83;;;24.60;58.90;;;;;;4915701;29;20464;-84
2021/09/10 07:28:24;;;;;;;7.43;6.33;;;24.60;58.80;;;;;;4917021;29;20478;-84
2021/09/10 07:30:50;;;;;;;6.50;5.87;;;24.60;58.90;;;;;;4901089;29;20422;-84
2021/09/10 07:33:16;;;;;;;6.97;6.27;;;24.70;58.90;;;;;;4908459;29;20441;-84
2021/09/10 07:35:45;;;;;;;8.80;6.80;;;24.70;58.90;;;;;;4897460;29;20236;-84
2021/09/10 07:38:11;;;;;;;6.03;5.53;;;24.70;59.00;;;;;;4898259;29;20197;-84
2021/09/10 07:40:39;;;;;;;5.70;5.20;;;24.80;59.00;;;;;;4896027;29;20463;-84
2021/09/10 07:43:06;;;;;;;7.43;6.30;;;24.80;58.90;;;;;;4906091;29;20695;-84
2021/09/10 07:45:39;;;;;;;7.23;5.90;;;24.80;58.90;;;;;;4898933;29;20442;-84
2021/09/10 07:48:12;;;;;;;7.03;6.40;;;24.80;58.90;;;;;;4904431;29;20433;-84
2021/09/10 07:57:27;;;;;;;9.03;6.13;;;24.80;58.90;;;;;;4964042;28;20459;-83
2021/09/10 08:00:07;;;;;;;9.50;5.90;;;24.80;58.90;;;;;;4949926;28;20470;-84
2021/09/10 08:02:38;;;;;;;7.53;6.63;;;24.80;58.90;;;;;;4965162;28;20422;-84
2021/09/10 08:05:07;;;;;;;5.93;5.43;;;24.80;58.90;;;;;;4948441;29;20407;-83
2021/09/10 08:07:35;;;;;;;6.80;5.87;;;24.90;58.90;;;;;;4973721;28;20422;-84
2021/09/10 08:10:13;;;;;;;6.33;5.73;;;24.90;58.90;;;;;;4964793;28;20454;-84
2021/09/10 08:12:49;;;;;;;6.80;6.13;;;24.90;58.90;;;;;;4950034;28;20426;-83
2021/09/10 08:15:21;;;;;;;6.40;5.73;;;24.90;58.80;;;;;;4957146;29;20420;-84
2021/09/10 08:17:47;;;;;;;7.57;6.50;;;24.90;58.80;;;;;;4962672;28;20436;-84
2021/09/10 08:20:17;;;;;;;7.43;6.30;;;24.90;58.80;;;;;;4947087;29;20465;-85
2021/09/10 08:22:46;;;;;;;6.30;5.70;;;24.90;58.80;;;;;;4948893;28;20179;-85
2021/09/10 08:25:15;;;;;;;6.20;5.70;;;24.90;58.80;;;;;;4943856;29;20463;-85
2021/09/10 08:28:04;;;;;;;7.17;6.43;;;24.90;58.70;;;;;;4955296;28;20920;-85
2021/09/10 08:30:37;;;;;;;7.03;6.43;;;25.00;58.80;;;;;;4957196;28;20429;-86
2021/09/10 08:33:14;;;;;;;7.70;6.90;;;25.00;58.80;;;;;;4953780;28;20437;-86
2021/09/10 08:35:43;;;;;;;6.13;5.63;;;25.00;58.90;;;;;;4961130;28;20423;-87
2021/09/10 08:38:11;;;;;;;6.67;6.07;;;25.00;58.90;;;;;;4944145;28;20531;-87
2021/09/10 08:40:54;;;;;;;;;;;;;;;;;;;;;
2021/09/10 08:43:38;;;;;;;6.27;5.67;;;25.00;58.80;;;;;;4965332;28;20485;-88
2021/09/10 08:46:04;;;;;;;8.47;6.53;;;25.00;58.80;;;;;;4943764;29;20434;-87
2021/09/10 08:48:31;;;;;;;6.73;6.00;;;25.00;58.80;;;;;;4958692;28;20424;-87
2021/09/10 09:01:40;;;;;;;6.43;5.83;;;25.00;58.70;;;;;;4921708;29;20531;-86
2021/09/10 09:04:12;;;;;;;7.70;7.00;;;25.00;58.80;;;;;;4902021;29;20436;-87
2021/09/10 09:06:38;;;;;;;6.60;6.00;;;25.00;58.80;;;;;;4915311;29;20421;-87
2021/09/10 09:10:08;;;;;;;;;;;;;;;;;;;;;
2021/09/10 09:12:58;;;;;;;7.07;6.37;;;25.00;58.70;;;;;;4916861;29;20283;-87
2021/09/10 09:19:38;;;;;;;7.03;6.33;;;25.00;58.70;;;;;;4949129;29;20425;-87
2021/09/10 09:25:33;;;;;;;6.50;5.90;;;25.00;58.80;;;;;;4945400;29;20414;-87
2021/09/10 09:28:37;;;;;;;6.27;5.77;;;25.00;58.80;;;;;;4926128;29;20430;-87
2021/09/10 09:31:10;;;;;;;7.97;7.27;;;25.00;58.70;;;;;;4882296;29;20486;-87
2021/09/10 09:34:15;;;;;;;7.30;6.60;;;25.00;58.80;;;;;;4877998;29;20441;-87
2021/09/10 09:50:40;;;;;;;6.33;5.63;;;25.00;58.80;;;;;;4850668;29;20410;-86
2021/09/10 09:53:07;;;;;;;6.17;5.67;;;25.00;58.80;;;;;;4840908;29;20996;-86
2021/09/10 09:55:41;;;;;;;7.13;6.43;;;25.00;58.80;;;;;;4851973;29;20494;-86
2021/09/10 10:01:29;;;;;;;5.73;5.23;;;25.00;58.80;;;;;;4840279;29;20934;-86
2021/09/10 10:11:11;;;;;;;7.50;6.83;;;25.10;58.80;;;;;;4896781;29;20511;-87
2021/09/10 10:14:15;;;;;;;6.60;6.00;;;25.10;58.80;;;;;;4910663;29;20531;-86
2021/09/10 10:17:19;;;;;;;6.77;6.07;;;25.10;58.80;;;;;;4912914;29;20468;-85
2021/09/10 10:26:40;;;;;;;5.73;5.13;;;25.10;58.80;;;;;;4860329;29;20460;-85
2021/09/10 10:29:36;;;;;;;7.40;6.80;;;25.10;58.80;;;;;;4858935;29;20430;-85
2021/09/10 10:35:46;;;;;;;6.90;6.20;;;25.10;58.80;;;;;;4820332;29;20444;-85
2021/09/10 10:38:27;;;;;;;6.27;5.67;;;25.10;58.80;;;;;;4819109;29;20429;-85
2021/09/10 10:41:29;;;;;;;;;;;;;;;;;;;;;
2021/09/10 10:43:57;;;;;;;6.53;5.93;;;25.10;58.80;;;;;;4796304;30;20469;-85
2021/09/10 10:53:40;;;;;;;6.23;5.67;;;25.20;58.70;;;;;;4782628;29;20410;-85
2021/09/10 10:56:39;;;;;;;6.87;5.97;;;25.10;58.70;;;;;;4784203;29;20443;-85
2021/09/10 11:00:08;;;;;;;6.70;6.13;;;25.10;58.70;;;;;;4821731;29;20436;-85
2021/09/10 11:02:44;;;;;;;6.33;5.83;;;25.10;58.70;;;;;;4863663;29;20433;-85
2021/09/10 11:05:28;;;;;;;6.03;5.53;;;25.10;58.70;;;;;;4898221;29;20424;-85
2021/09/10 11:08:17;;;;;;;5.90;5.40;;;25.10;58.70;;;;;;4898866;29;20428;-85
2021/09/10 11:11:06;;;;;;;6.63;6.03;;;25.20;59.30;;;;;;4890836;29;20472;-84
2021/09/10 11:20:39;;;;;;;6.20;5.60;;;25.20;58.70;;;;;;4920714;29;20462;-85
2021/09/10 11:27:07;;;;;;;6.83;6.33;;;25.20;58.70;;;;;;4918079;29;20500;-85
2021/09/10 11:30:19;;;;;;;6.00;5.40;;;25.20;58.70;;;;;;4885221;29;20432;-85
2021/09/10 11:33:01;;;;;;;5.77;5.27;;;25.10;58.70;;;;;;4895145;29;20420;-88
2021/09/10 11:35:40;;;;;;;5.90;5.40;;;25.10;58.70;;;;;;4894779;29;20500;-88
2021/09/10 11:38:39;;;;;;;;;;;;;;;;;;;;;
2021/09/10 11:45:44;;;;;;;6.03;5.53;;;25.20;58.70;;;;;;4919530;29;20403;-87
2021/09/10 11:48:32;;;;;;;6.40;5.70;;;25.20;58.70;;;;;;4853309;29;20430;-88
2021/09/10 12:12:33;;;;;;;7.20;6.37;;;25.20;58.70;;;;;;4911393;29;20412;-88
2021/09/10 12:15:23;;;;;;;7.47;6.77;;;25.20;58.70;;;;;;4891014;29;20410;-87
2021/09/10 12:18:35;;;;;;;8.50;7.70;;;25.10;58.70;;;;;;4873016;29;20426;-88
2021/09/10 12:21:06;;;;;;;8.37;7.50;;;25.10;58.70;;;;;;4867404;29;20489;-87
2021/09/10 12:23:40;;;;;;;7.30;6.70;;;25.10;58.70;;;;;;4892739;29;20449;-87
2021/09/10 12:26:08;;;;;;;8.93;8.03;;;25.10;58.70;;;;;;4891030;29;20793;-88
2021/09/10 12:28:43;;;;;;;7.67;6.97;;;25.10;58.70;;;;;;4891667;29;20429;-88
2021/09/10 12:31:10;;;;;;;8.37;7.43;;;25.20;58.70;;;;;;4897811;29;20452;-88
2021/09/10 12:34:04;;;;;;;7.47;6.87;;;25.20;58.70;;;;;;4909890;29;21014;-87
2021/09/10 12:36:51;;;;;;;;;;;;;;;;;;;;;
2021/09/10 12:39:17;;;;;;;7.27;6.67;;;25.20;58.70;;;;;;4911674;29;20512;-87
2021/09/10 12:41:46;;;;;;;7.60;6.90;;;25.10;58.70;;;;;;4910835;29;20432;-87
2021/09/10 12:44:17;;;;;;;7.83;7.07;;;25.20;58.70;;;;;;4911129;29;20401;-87
2021/09/10 12:46:48;;;;;;;7.33;6.73;;;25.20;58.70;;;;;;4909507;29;20417;-87
2021/09/10 12:49:16;;;;;;;7.77;7.03;;;25.20;58.70;;;;;;4892437;29;20469;-87
2021/09/10 12:51:44;;;;;;;7.47;6.77;;;25.20;58.70;;;;;;4894685;29;20428;-87
2021/09/10 12:54:19;;;;;;;7.67;6.93;;;25.20;58.70;;;;;;4889703;29;20434;-87
2021/09/10 13:07:16;;;;;;;7.03;6.43;;;25.20;58.70;;;;;;4794260;29;20453;-87
2021/09/10 13:09:53;;;;;;;6.97;6.37;;;25.10;58.70;;;;;;4811441;29;20788;-87
2021/09/10 13:13:21;;;;;;;7.37;6.60;;;25.10;58.70;;;;;;4822520;29;20477;-87
2021/09/10 13:15:59;;;;;;;7.40;6.70;;;25.20;58.70;;;;;;4820331;29;20425;-88
2021/09/10 13:21:34;;;;;;;7.27;6.67;;;25.10;58.70;;;;;;4834953;29;20468;-87
2021/09/10 13:24:42;;;;;;;6.97;6.47;;;25.10;58.70;;;;;;4815884;29;20512;-88
2021/09/10 13:27:14;;;;;;;7.60;6.90;;;25.10;59.30;;;;;;4799864;29;20489;-88
2021/09/10 13:29:45;;;;;;;6.57;6.07;;;25.10;58.80;;;;;;4849483;29;20438;-88
2021/09/10 13:32:17;;;;;;;7.70;6.77;;;25.10;58.70;;;;;;4899115;29;20440;-88
2021/09/10 13:34:58;;;;;;;7.23;6.53;;;25.20;58.70;;;;;;4886996;29;20497;-87
2021/09/10 13:37:27;;;;;;;7.47;6.73;;;25.20;58.70;;;;;;4892560;29;20434;-87
2021/09/10 13:40:15;;;;;;;7.03;6.43;;;25.10;58.70;;;;;;4894505;29;20468;-87
2021/09/10 13:43:12;;;;;;;;;;;;;;;;;;;;;
2021/09/10 13:45:51;;;;;;;7.73;6.67;;;25.20;58.70;;;;;;4909907;29;20469;-87
2021/09/10 13:49:02;;;;;;;6.87;6.27;;;25.10;58.70;;;;;;4908732;29;20903;-87
2021/09/10 13:58:32;;;;;;;7.20;6.50;;;25.10;58.70;;;;;;4798070;30;20398;-88
2021/09/10 14:01:12;;;;;;;7.53;6.83;;;25.10;58.80;;;;;;4783323;30;20939;-88
2021/09/10 14:03:46;;;;;;;6.03;5.50;;;25.10;58.80;;;;;;4791786;30;20446;-87
2021/09/10 14:09:45;;;;;;;6.77;6.17;;;25.20;58.80;;;;;;4851242;29;20453;-87
2021/09/10 14:18:37;;;;;;;7.83;7.13;;;25.10;58.90;;;;;;4856679;29;20870;-88
2021/09/10 14:21:28;;;;;;;;;;;;;;;;;;;;;
2021/09/10 14:27:23;;;;;;;10.37;7.30;;;25.20;58.90;;;;;;4929745;29;20376;-86
2021/09/10 14:30:27;;;;;;;7.87;7.20;;;25.10;58.90;;;;;;4929950;29;20399;-87
2021/09/10 14:33:04;;;;;;;7.70;6.90;;;25.10;58.80;;;;;;4930512;29;20428;-86
2021/09/10 14:36:09;;;;;;;;;;;;;;;;;;;;;
2021/09/10 14:52:20;;;;;;;7.47;6.77;;;25.10;59.00;;;;;;4823289;29;20446;-87
2021/09/10 14:55:00;;;;;;;7.70;6.73;;;25.10;59.00;;;;;;4821150;29;20470;-88
2021/09/10 15:04:38;;;;;;;;;;;;;;;;;;;;;
2021/09/10 15:18:03;;;;;;;;;;;;;;;;;;;;;
2021/09/10 15:27:35;;;;;;;10.40;7.20;;;25.30;59.90;;;;;;4716069;30;20426;-85
2021/09/10 15:30:19;;;;;;;11.67;7.17;;;25.30;59.80;;;;;;4735672;29;20511;-85
2021/09/10 15:33:35;;;;;;;;;;;;;;;;;;;;;
2021/09/10 15:36:09;;;;;;;10.33;7.33;;;25.30;59.70;;;;;;4824021;29;20429;-85
2021/09/10 15:43:04;;;;;;;12.20;6.27;;;25.30;59.70;;;;;;4776144;29;20411;-85
2021/09/10 15:49:27;;;;;;;;;;;;;;;;;;;;;
2021/09/10 16:06:22;;;;;;;;;;;;;;;;;;;;;
2021/09/10 16:15:41;;;;;;;;;;;;;;;;;;;;;
2021/09/10 16:28:53;;;;;;;7.10;6.40;;;25.40;59.30;;;;;;4821290;29;20408;-86
2021/09/10 16:31:43;;;;;;;7.63;6.20;;;25.40;59.30;;;;;;4819942;29;20436;-87
2021/09/10 16:37:37;;;;;;;6.67;6.00;;;25.40;59.20;;;;;;4842163;29;20501;-86
2021/09/10 16:43:55;;;;;;;6.37;5.77;;;25.40;59.20;;;;;;4842029;29;20396;-85
2021/09/10 16:50:54;;;;;;;6.67;5.87;;;25.40;59.10;;;;;;4842541;29;20410;-85
2021/09/10 16:53:45;;;;;;;;;;;;;;;;;;;;;
2021/09/10 16:56:23;;;;;;;5.73;5.10;;;25.40;59.10;;;;;;4810969;29;20448;-84
2021/09/10 16:58:54;;;;;;;6.63;5.80;;;25.40;59.20;;;;;;4821744;29;20446;-84
2021/09/10 17:01:42;;;;;;;7.63;6.00;;;25.40;59.10;;;;;;4821708;29;20548;-84
2021/09/10 17:04:18;;;;;;;7.90;6.60;;;25.40;59.10;;;;;;4845803;29;20460;-83
2021/09/10 17:06:57;;;;;;;6.30;5.70;;;25.40;59.00;;;;;;4859130;29;20499;-84
2021/09/10 17:12:39;;;;;;;7.70;5.33;;;25.40;59.00;;;;;;4864285;29;20479;-87
2021/09/10 17:25:25;;;;;;;7.13;6.40;;;25.40;59.00;;;;;;4880415;29;20410;-86
2021/09/10 17:31:09;;;;;;;8.03;5.87;;;25.30;59.50;;;;;;4861062;29;20432;-87
2021/09/10 17:33:46;;;;;;;;;;;;;;;;;;;;;
2021/09/10 17:36:13;;;;;;;5.60;5.10;;;25.30;58.90;;;;;;4815930;29;20443;-86
2021/09/10 17:45:43;;;;;;;6.80;6.10;;;25.40;58.90;;;;;;4822322;29;20453;-86
2021/09/10 18:09:14;;;;;;;6.40;5.73;;;25.20;59.00;;;;;;4718295;30;20421;-88
2021/09/10 18:22:01;;;;;;;6.30;5.80;;;25.20;59.00;;;;;;4719888;30;20512;-88
2021/09/10 18:44:51;;;;;;;6.20;5.60;;;25.10;59.00;;;;;;4737546;30;20474;-87
2021/09/10 18:55:00;;;;;;;6.07;5.57;;;25.10;59.00;;;;;;4781185;29;20461;-87
2021/09/10 19:11:05;;;;;;;;;;;;;;;;;;;;;
2021/09/10 19:45:24;;;;;;;6.03;5.53;;;25.10;59.10;;;;;;4742091;30;20403;-86
2021/09/10 19:48:48;;;;;;;5.83;5.33;;;25.10;59.10;;;;;;4772875;30;20436;-87
2021/09/10 19:55:53;;;;;;;;;;;;;;;;;;;;;
2021/09/10 20:09:01;;;;;;;6.33;5.73;;;25.00;59.10;;;;;;4737197;30;20429;-85
2021/09/10 20:35:25;;;;;;;;;;;;;;;;;;;;;
2021/09/10 20:38:06;;;;;;;5.50;5.00;;;25.10;59.20;;;;;;4700634;30;20466;-84
2021/09/10 20:40:53;;;;;;;5.97;5.47;;;25.10;59.20;;;;;;4722501;30;20749;-88
2021/09/10 20:46:47;;;;;;;5.47;4.90;;;25.10;59.20;;;;;;4752646;30;20451;-89
2021/09/10 20:56:08;;;;;;;5.20;4.70;;;25.10;59.20;;;;;;4824490;29;20420;-83
2021/09/10 20:59:13;;;;;;;5.37;4.80;;;25.10;59.20;;;;;;4824039;29;20436;-85
2021/09/10 21:40:31;;;;;;;6.33;5.83;;;25.10;59.20;;;;;;6277701;22;20514;-89
2021/09/10 21:43:02;;;;;;;6.87;6.17;;;26.10;57.30;;;;;;6275394;23;20403;-89
2021/09/10 21:59:02;;;;;;;;;;;;;;;;;;;;;
2021/09/10 22:29:37;;;;;;;;;;;;;;;;;;;;;
2021/09/10 22:35:48;;;;;;;6.27;5.67;;;25.10;59.10;;;;;;5873854;24;20377;-85
2021/09/10 22:38:21;;;;;;;6.77;6.07;;;25.10;59.10;;;;;;5867728;24;20400;-89
2021/09/10 22:41:22;;;;;;;6.37;5.77;;;25.00;59.10;;;;;;5875996;24;20397;-89
2021/09/10 22:57:12;;;;;;;6.17;5.67;;;25.00;59.20;;;;;;5974897;24;20402;-89
2021/09/10 22:59:49;;;;;;;6.93;6.00;;;25.00;59.20;;;;;;5953119;24;20394;-89
2021/09/10 23:02:26;;;;;;;6.83;6.23;;;25.00;59.10;;;;;;6051083;23;20413;-89
2021/09/10 23:10:54;;;;;;;7.20;6.60;;;25.10;59.20;;;;;;6031384;23;20444;-88
2021/09/10 23:13:30;;;;;;;6.13;5.53;;;25.00;59.20;;;;;;6063287;23;20382;-89
2021/09/10 23:16:06;;;;;;;6.77;6.17;;;25.10;59.10;;;;;;6093650;23;20395;-89
2021/09/10 23:18:32;;;;;;;7.23;6.10;;;25.10;59.10;;;;;;6178134;23;20384;-89
2021/09/10 23:21:16;;;;;;;9.00;7.27;;;25.10;59.10;;;;;;6202946;23;20388;-89
2021/09/10 23:30:59;;;;;;;6.23;5.73;;;25.10;59.10;;;;;;6182866;23;20353;-86
2021/09/10 23:33:35;;;;;;;6.50;5.90;;;25.10;59.20;;;;;;6173223;23;20384;-86
2021/09/10 23:39:27;;;;;;;6.70;6.10;;;25.10;59.20;;;;;;6181573;23;20332;-86
2021/09/10 23:42:05;;;;;;;7.00;5.70;;;25.10;59.20;;;;;;6180816;23;20372;-86
2021/09/10 23:45:01;;;;;;;6.03;5.53;;;25.10;59.20;;;;;;6181575;23;20408;-86
2021/09/10 23:54:31;;;;;;;6.97;6.27;;;25.10;59.20;;;;;;6119889;23;20377;-86
2021/09/10 23:57:03;;;;;;;7.10;6.50;;;25.00;59.20;;;;;;6073500;23;20362;-85
2021/09/10 23:59:59;;;;;;;6.80;6.20;;;25.00;59.20;;;;;;6098641;23;20388;-85
